Gaborone, Botswana

8:42 PM CAT on October 23, 2014 (GMT +0200)
Sir Seretse Khama International | Change Station
CLOSE
Current Station
Airport
Location: Seretse Khama,
Elevation: 3297 ft
Nearby Weather Stations

Elev 3297 ft 24.56 °S, 25.92 °E | Updated 42 minutes ago

Scattered Clouds
Scattered Clouds
77 °F
Feels Like 77 °F
N
8
Wind Variable Wind from SSE

Today
High -- | Low -- °F
--% Chance of Precip.
Yesterday
High -- | Low -- °F
Precip. -- in
5:35 AM 6:25 PM
Waning Crescent, 0% visible
Pressure 29.95 in
Visibility 6.2 miles
Clouds Few 3500 ft
Scattered Clouds 6500 ft
Dew Point 43 °F
Humidity 29%
Rainfall 0.00 in
Snow Depth Not available.
UV 0 out of 12
Pollen Not available.
Air Quality Not available.
Flu Activity Not available.
METAR FBSK 231800Z 15007KT 9999 FEW035CB SCT065 25/06 Q1014 RETS NOSIG

More Conditions Fewer Conditions

Pressure 29.95 in
Visibility 6.2 miles
Clouds Few 3500 ft
Scattered Clouds 6500 ft
Dew Point 43 °F
Humidity 29%
Rainfall 0.00 in
Snow Depth Not available.
UV 0 out of 12
Pollen Not available.
Air Quality Not available.
Flu Activity Not available.
METAR FBSK 231800Z 15007KT 9999 FEW035CB SCT065 25/06 Q1014 RETS NOSIG

More Conditions Fewer Conditions

10-Day Weather Forecast

Almanac

Astronomy

Oct. 23, 2014 Rise Set
Actual Time 5:35 AM CAT 6:25 PM CAT
Civil Twilight 5:12 AM CAT 6:49 PM CAT
Nautical Twilight 4:44 AM CAT 7:17 PM CAT
Astronomical Twilight 4:16 AM CAT 7:45 PM CAT
Moon 5:12 AM CAT 6:08 PM CAT
Length of Visible Light 13h 37m
Length of Day
12h 50m
Tomorrow will be 1m 22s longer.
Waning Crescent, 0% of the Moon is Illuminated
Today
Waning Crescent
Oct 23
New
Oct 30
First Quarter
Nov 6
Full
Nov 14
Last Quarter

Today's Extremes

Country Highs Country Lows

Community

WunderPhotos

Upload Photos

1,764,339 photos uploaded!

WunderBlogs® & News

Nearby

Snow Depth

Not available.

Earthquake Activity

City Distance Mag. Time & Date
No recent earthquake activity has been reported nearby.
Minimum magnitude displayed is 2.5.

Coastal Water Temperatures

Place Temperature
No Stations Reporting

Nearby Weather Stations